createdAt,value
2019-04-19T00:00:12.820Z,11.03
2019-04-19T00:02:44.638Z,11.40
2019-04-19T00:05:13.152Z,10.53
2019-04-19T00:07:47.981Z,8.90
2019-04-19T00:10:28.444Z,12.83
2019-04-19T00:12:50.347Z,9.13
2019-04-19T00:15:14.018Z,10.67
2019-04-19T00:17:43.936Z,8.77
2019-04-19T00:20:31.402Z,10.40
2019-04-19T00:22:58.190Z,10.20
2019-04-19T00:25:14.060Z,9.67
2019-04-19T00:27:49.383Z,9.30
2019-04-19T00:30:23.745Z,11.73
2019-04-19T00:33:00.656Z,12.13
2019-04-19T00:35:14.342Z,10.03
2019-04-19T00:37:43.177Z,11.80
2019-04-19T00:40:32.058Z,11.13
2019-04-19T00:42:56.949Z,10.60
2019-04-19T00:45:26.219Z,11.53
2019-04-19T00:47:55.977Z,9.60
2019-04-19T00:50:23.953Z,10.93
2019-04-19T00:53:02.935Z,12.87
2019-04-19T00:55:21.623Z,9.07
2019-04-19T00:57:51.934Z,11.27
2019-04-19T01:00:22.647Z,10.40
2019-04-19T01:02:52.975Z,11.90
2019-04-19T01:05:20.932Z,10.10
2019-04-19T01:07:49.495Z,7.60
2019-04-19T01:10:31.184Z,9.13
2019-04-19T01:13:05.472Z,9.17
2019-04-19T01:15:29.931Z,10.03
2019-04-19T01:18:05.468Z,8.70
2019-04-19T01:20:20.565Z,10.37
2019-04-19T01:22:58.801Z,10.33
2019-04-19T01:25:24.082Z,9.30
2019-04-19T01:27:50.939Z,9.60
2019-04-19T01:30:28.788Z,12.07
2019-04-19T01:32:57.262Z,9.90
2019-04-19T01:35:21.841Z,15.20
2019-04-19T01:37:56.742Z,10.10
2019-04-19T01:40:43.999Z,13.87
2019-04-19T01:43:06.077Z,12.47
2019-04-19T01:45:44.694Z,10.30
2019-04-19T01:48:07.600Z,9.27
2019-04-19T01:50:44.162Z,12.33
2019-04-19T01:53:17.346Z,11.03
2019-04-19T01:55:29.685Z,8.23
2019-04-19T01:58:02.532Z,9.77
2019-04-19T02:00:37.231Z,13.20
2019-04-19T02:02:59.900Z,9.97
2019-04-19T02:05:27.692Z,9.00
2019-04-19T02:08:03.485Z,11.23
2019-04-19T02:11:02.714Z,10.37
2019-04-19T02:13:31.682Z,10.10
2019-04-19T02:15:57.555Z,13.93
2019-04-19T02:18:29.396Z,11.27
2019-04-19T02:20:58.182Z,8.13
2019-04-19T02:23:28.169Z,13.83
2019-04-19T02:26:03.409Z,8.50
2019-04-19T02:28:31.832Z,9.80
2019-04-19T02:31:19.090Z,8.97
2019-04-19T02:33:55.958Z,12.43
2019-04-19T02:36:25.386Z,9.67
2019-04-19T02:39:06.813Z,12.27
2019-04-19T02:41:40.036Z,12.33
2019-04-19T02:43:59.349Z,11.07
2019-04-19T02:49:02.129Z,13.43
2019-04-19T02:51:32.955Z,17.97
2019-04-19T02:54:02.325Z,15.17
2019-04-19T02:56:44.582Z,13.77
2019-04-19T02:59:18.555Z,15.77
2019-04-19T03:01:40.122Z,12.87
2019-04-19T03:04:15.799Z,15.50
2019-04-19T03:06:22.419Z,9.97
2019-04-19T03:08:37.470Z,16.77
2019-04-19T03:11:22.066Z,16.90
2019-04-19T03:13:54.563Z,14.57
2019-04-19T03:16:31.241Z,17.93
2019-04-19T03:18:53.625Z,14.13
2019-04-19T03:21:25.119Z,16.47
2019-04-19T03:23:56.625Z,16.63
2019-04-19T03:26:28.070Z,12.40
2019-04-19T03:28:48.179Z,12.40
2019-04-19T03:31:41.354Z,13.03
2019-04-19T03:34:11.617Z,11.90
2019-04-19T03:36:27.196Z,14.90
2019-04-19T03:39:07.133Z,13.03
2019-04-19T03:44:03.622Z,14.90
2019-04-19T03:46:31.461Z,15.33
2019-04-19T03:48:56.146Z,11.20
2019-04-19T03:51:35.872Z,15.53
2019-04-19T03:54:00.528Z,14.07
2019-04-19T03:56:36.086Z,13.87
2019-04-19T03:58:46.425Z,16.07
2019-04-19T04:01:15.270Z,16.93
2019-04-19T04:03:47.946Z,12.17
2019-04-19T04:06:21.972Z,17.03
2019-04-19T04:08:48.240Z,12.70
2019-04-19T04:11:20.119Z,16.23
2019-04-19T04:14:03.019Z,13.57
2019-04-19T04:16:25.222Z,16.80
2019-04-19T04:18:47.157Z,14.40
2019-04-19T04:21:16.302Z,14.70
2019-04-19T04:23:51.147Z,14.37
2019-04-19T04:26:19.504Z,15.03
2019-04-19T04:28:59.501Z,16.90
2019-04-19T04:31:25.555Z,16.50
2019-04-19T04:33:58.118Z,17.07
2019-04-19T04:36:39.941Z,18.50
2019-04-19T04:38:49.963Z,16.43
2019-04-19T04:41:23.618Z,15.50
2019-04-19T04:44:10.241Z,16.73
2019-04-19T04:46:44.886Z,19.27
2019-04-19T04:49:07.183Z,15.47
2019-04-19T04:51:42.248Z,14.50
2019-04-19T04:53:51.174Z,18.50
2019-04-19T04:56:21.436Z,16.57
2019-04-19T04:58:51.167Z,16.30
2019-04-19T05:01:33.524Z,15.70
2019-04-19T05:04:07.422Z,14.60
2019-04-19T05:06:34.347Z,16.67
2019-04-19T05:09:16.914Z,19.47
2019-04-19T05:11:38.577Z,14.80
2019-04-19T05:14:12.184Z,14.00
2019-04-19T05:16:46.733Z,16.93
2019-04-19T05:19:13.094Z,17.60
2019-04-19T05:21:40.348Z,15.53
2019-04-19T05:24:14.958Z,16.47
2019-04-19T05:26:47.266Z,14.50
2019-04-19T05:29:10.911Z,16.77
2019-04-19T05:31:32.899Z,16.57
2019-04-19T05:34:17.651Z,16.17
2019-04-19T05:36:43.909Z,15.50
2019-04-19T05:39:17.358Z,14.30
2019-04-19T05:41:44.094Z,14.53
2019-04-19T05:46:51.774Z,14.83
2019-04-19T05:49:16.069Z,17.17
2019-04-19T05:54:05.425Z,15.83
2019-04-19T05:56:30.828Z,15.23
2019-04-19T05:59:08.830Z,11.97
2019-04-19T06:01:48.151Z,13.03
2019-04-19T06:04:18.257Z,12.67
2019-04-19T06:06:53.932Z,15.87
2019-04-19T06:09:00.438Z,8.80
2019-04-19T06:11:33.309Z,14.83
2019-04-19T06:14:19.225Z,13.83
2019-04-19T06:16:43.869Z,15.53
2019-04-19T06:19:18.127Z,12.97
2019-04-19T06:21:46.137Z,13.63
2019-04-19T06:24:25.097Z,15.80
2019-04-19T06:27:02.661Z,12.63
2019-04-19T06:29:23.893Z,15.87
2019-04-19T06:31:58.553Z,13.40
2019-04-19T06:34:23.097Z,15.40
2019-04-19T06:36:31.651Z,15.03
2019-04-19T06:39:01.481Z,10.20
2019-04-19T06:41:37.773Z,13.13
2019-04-19T06:44:10.844Z,10.13
2019-04-19T06:46:45.217Z,15.27
2019-04-19T06:49:08.325Z,12.70
2019-04-19T06:51:41.579Z,15.23
2019-04-19T06:54:07.170Z,11.93
2019-04-19T06:56:38.225Z,13.30
2019-04-19T06:59:13.876Z,13.60
2019-04-19T07:01:42.021Z,13.37
2019-04-19T07:04:06.092Z,12.33
2019-04-19T07:06:48.190Z,12.20
2019-04-19T07:09:35.604Z,12.83
2019-04-19T07:11:55.473Z,11.70
2019-04-19T07:14:14.578Z,11.87
2019-04-19T07:16:59.670Z,13.00
2019-04-19T07:19:30.384Z,11.53
2019-04-19T07:21:57.878Z,10.83
2019-04-19T07:24:33.940Z,11.23
2019-04-19T07:26:57.823Z,13.77
2019-04-19T07:29:10.758Z,8.97
2019-04-19T07:31:40.173Z,9.47
2019-04-19T07:34:22.271Z,12.93
2019-04-19T07:36:59.358Z,10.50
2019-04-19T07:39:28.352Z,9.27
2019-04-19T07:42:07.731Z,13.23
2019-04-19T07:44:21.269Z,10.60
2019-04-19T07:47:02.162Z,9.43
2019-04-19T07:49:15.351Z,11.93
2019-04-19T07:51:56.545Z,11.40
2019-04-19T07:54:19.782Z,8.63
2019-04-19T07:56:58.438Z,11.37
2019-04-19T07:59:42.382Z,12.13
2019-04-19T08:07:24.260Z,11.53
2019-04-19T08:17:35.527Z,8.37
2019-04-19T08:29:35.213Z,7.00
2019-04-19T08:31:53.452Z,7.27
2019-04-19T08:34:27.292Z,13.87
2019-04-19T08:36:58.605Z,10.90
2019-04-19T08:39:41.730Z,8.53
2019-04-19T08:42:18.411Z,7.93
2019-04-19T08:44:40.599Z,8.63
2019-04-19T08:47:00.007Z,8.20
2019-04-19T08:49:37.159Z,7.80
2019-04-19T08:52:08.445Z,7.80
2019-04-19T08:54:54.733Z,7.57
2019-04-19T08:57:08.165Z,9.87
2019-04-19T08:59:54.027Z,6.87
2019-04-19T09:02:23.424Z,7.57
2019-04-19T09:04:51.978Z,10.73
2019-04-19T09:10:14.035Z,10.53
2019-04-19T09:12:21.082Z,12.27
2019-04-19T09:14:56.351Z,13.50
2019-04-19T09:17:33.202Z,11.77
2019-04-19T09:20:14.114Z,7.50
2019-04-19T09:22:25.540Z,7.33
2019-04-19T09:24:47.878Z,9.90
2019-04-19T09:27:33.854Z,10.60
2019-04-19T09:29:58.942Z,11.20
2019-04-19T09:32:15.395Z,7.97
2019-04-19T09:34:47.086Z,8.30
2019-04-19T09:37:20.304Z,9.47
2019-04-19T09:39:48.865Z,9.73
2019-04-19T09:42:24.359Z,8.43
2019-04-19T09:44:48.292Z,7.97
2019-04-19T09:47:12.407Z,10.27
2019-04-19T09:49:53.259Z,6.93
2019-04-19T09:52:35.687Z,7.33
2019-04-19T09:55:04.006Z,12.63
2019-04-19T09:57:34.468Z,8.27
2019-04-19T09:59:44.721Z,7.80
2019-04-19T10:02:22.538Z,9.03
2019-04-19T10:04:44.147Z,7.47
2019-04-19T10:07:13.013Z,8.60
2019-04-19T10:09:42.904Z,6.53
2019-04-19T10:12:11.782Z,8.00
2019-04-19T10:14:41.676Z,7.23
2019-04-19T10:17:12.353Z,8.07
2019-04-19T10:19:42.493Z,7.47
2019-04-19T10:22:12.377Z,7.73
2019-04-19T10:24:41.325Z,10.37
2019-04-19T10:30:04.314Z,9.87
2019-04-19T10:32:46.530Z,8.67
2019-04-19T10:35:27.708Z,8.63
2019-04-19T10:38:09.526Z,9.00
2019-04-19T10:40:51.413Z,9.30
2019-04-19T10:43:32.933Z,9.47
2019-04-19T10:46:15.064Z,9.00
2019-04-19T10:49:07.907Z,6.73
2019-04-19T10:51:39.755Z,8.13
2019-04-19T10:54:20.611Z,7.63
2019-04-19T10:57:02.202Z,8.97
2019-04-19T10:59:44.712Z,7.40
2019-04-19T11:02:26.767Z,6.47
2019-04-19T11:05:09.196Z,7.93
2019-04-19T11:07:51.638Z,4.57
2019-04-19T11:10:33.545Z,3.47
2019-04-19T11:13:14.958Z,3.80
2019-04-19T11:15:56.320Z,4.73
2019-04-19T11:18:37.668Z,7.10
2019-04-19T11:21:19.872Z,4.73
2019-04-19T11:24:01.976Z,2.93
2019-04-19T11:26:43.233Z,3.57
2019-04-19T11:29:24.230Z,4.03
2019-04-19T11:32:06.012Z,3.80
2019-04-19T11:34:47.588Z,3.53
2019-04-19T11:40:13.078Z,3.23
2019-04-19T11:42:55.206Z,4.67
2019-04-19T11:45:37.699Z,5.00
2019-04-19T11:48:19.022Z,3.53
2019-04-19T11:51:00.167Z,3.80
2019-04-19T11:53:40.814Z,8.57
2019-04-19T11:56:22.749Z,2.80
2019-04-19T11:59:04.713Z,7.10
2019-04-19T12:01:46.170Z,3.30
2019-04-19T12:04:26.618Z,3.10
2019-04-19T12:07:08.191Z,2.73
2019-04-19T12:09:50.353Z,3.10
2019-04-19T12:12:32.861Z,6.33
2019-04-19T12:15:14.091Z,4.57
2019-04-19T12:17:55.447Z,3.17
2019-04-19T12:20:37.480Z,2.97
2019-04-19T12:23:18.219Z,3.60
2019-04-19T12:25:59.801Z,5.63
2019-04-19T12:28:41.704Z,3.17
2019-04-19T12:31:23.376Z,5.97
2019-04-19T12:34:06.866Z,3.23
2019-04-19T12:36:47.369Z,2.77
2019-04-19T12:39:28.591Z,5.10
2019-04-19T12:42:11.111Z,3.63
2019-04-19T12:44:52.386Z,3.23
2019-04-19T12:47:33.728Z,3.53
2019-04-19T12:50:16.243Z,3.23
2019-04-19T12:52:57.958Z,3.60
2019-04-19T12:55:39.952Z,2.90
2019-04-19T12:58:21.996Z,3.73
2019-04-19T13:01:03.863Z,2.97
2019-04-19T13:03:46.284Z,3.37
2019-04-19T13:06:27.879Z,4.50
2019-04-19T13:09:08.932Z,4.10
2019-04-19T13:11:50.602Z,2.70
2019-04-19T13:14:33.315Z,2.50
2019-04-19T13:17:14.503Z,2.40
2019-04-19T13:20:08.671Z,2.50
2019-04-19T13:22:38.853Z,3.43
2019-04-19T13:25:19.951Z,3.10
2019-04-19T13:28:01.711Z,2.60
2019-04-19T13:30:50.035Z,2.57
2019-04-19T13:33:26.105Z,2.33
2019-04-19T13:36:07.343Z,2.63
2019-04-19T13:38:48.775Z,3.03
2019-04-19T13:41:29.683Z,5.73
2019-04-19T13:44:11.267Z,4.90
2019-04-19T13:46:52.946Z,4.03
2019-04-19T13:49:34.673Z,4.43
2019-04-19T13:52:16.630Z,3.53
2019-04-19T13:54:58.846Z,3.20
2019-04-19T13:57:37.926Z,2.60
2019-04-19T14:00:46.699Z,3.27
2019-04-19T14:03:35.286Z,3.23
2019-04-19T14:06:44.604Z,2.50
2019-04-19T14:09:33.619Z,3.03
2019-04-19T14:12:43.046Z,2.77
2019-04-19T14:15:31.443Z,3.33
2019-04-19T14:18:19.598Z,4.23
2019-04-19T14:21:08.683Z,2.20
2019-04-19T14:24:04.126Z,2.70
2019-04-19T14:26:55.517Z,3.40
2019-04-19T14:30:03.665Z,2.50
2019-04-19T14:33:12.736Z,4.73
2019-04-19T14:36:01.966Z,3.93
2019-04-19T14:39:10.942Z,3.80
2019-04-19T14:41:59.440Z,2.77
2019-04-19T14:44:47.632Z,4.57
2019-04-19T14:47:36.942Z,2.30
2019-04-19T14:50:54.172Z,2.30
2019-04-19T14:53:55.913Z,2.67
2019-04-19T14:56:58.665Z,3.30
2019-04-19T14:59:40.802Z,5.97
2019-04-19T15:02:22.761Z,3.27
2019-04-19T15:05:05.455Z,4.63
2019-04-19T15:07:46.540Z,2.20
2019-04-19T15:10:27.738Z,2.30
2019-04-19T15:13:08.942Z,2.87
2019-04-19T15:15:50.075Z,2.50
2019-04-19T15:18:31.888Z,2.60
2019-04-19T15:24:16.967Z,2.30
2019-04-19T15:27:05.356Z,2.20
2019-04-19T15:29:59.021Z,7.30
2019-04-19T15:32:44.479Z,4.43
2019-04-19T15:35:53.859Z,2.77
2019-04-19T15:38:42.004Z,2.57
2019-04-19T15:41:30.330Z,3.03
2019-04-19T15:44:18.979Z,3.03
2019-04-19T15:47:08.391Z,3.90
2019-04-19T15:56:22.665Z,1.83
2019-04-19T15:59:04.970Z,2.37
2019-04-19T16:01:46.476Z,4.23
2019-04-19T16:04:29.510Z,2.40
2019-04-19T16:07:10.746Z,3.97
2019-04-19T16:09:55.687Z,2.73
2019-04-19T16:12:34.181Z,5.47
2019-04-19T16:15:16.070Z,2.50
2019-04-19T16:17:57.791Z,1.93
2019-04-19T16:20:39.128Z,2.30
2019-04-19T16:23:20.624Z,2.97
2019-04-19T16:26:03.230Z,2.30
2019-04-19T16:28:44.438Z,2.33
2019-04-19T16:31:26.482Z,2.70
2019-04-19T16:34:08.218Z,3.07
2019-04-19T16:36:50.061Z,2.50
2019-04-19T16:39:19.317Z,3.03
2019-04-19T16:41:48.945Z,2.20
2019-04-19T16:44:57.785Z,2.07
2019-04-19T16:47:47.213Z,2.73
2019-04-19T16:50:56.742Z,2.90
2019-04-19T16:53:26.079Z,2.10
2019-04-19T16:56:28.347Z,3.30
2019-04-19T16:59:00.019Z,2.70
2019-04-19T17:02:00.934Z,2.60
2019-04-19T17:05:00.827Z,2.20
2019-04-19T17:07:59.587Z,4.53
2019-04-19T17:10:59.732Z,3.40
2019-04-19T17:14:02.851Z,3.27
2019-04-19T17:17:06.995Z,5.73
2019-04-19T17:20:02.811Z,3.17
2019-04-19T17:23:01.583Z,3.67
2019-04-19T17:25:50.754Z,4.40
2019-04-19T17:28:59.440Z,9.37
2019-04-19T17:32:08.007Z,3.97
2019-04-19T17:35:18.316Z,4.77
2019-04-19T17:38:33.670Z,5.77
2019-04-19T17:41:36.770Z,3.57
2019-04-19T17:44:25.840Z,5.47
2019-04-19T17:47:38.209Z,5.00
2019-04-19T17:50:44.071Z,6.60
2019-04-19T17:53:40.099Z,5.27
2019-04-19T17:56:24.462Z,4.57
2019-04-19T17:59:06.511Z,4.57
2019-04-19T18:01:48.393Z,5.50
2019-04-19T18:04:30.269Z,6.10
2019-04-19T18:07:11.619Z,4.03
2019-04-19T18:09:57.151Z,7.03
2019-04-19T18:12:35.236Z,5.57
2019-04-19T18:15:17.279Z,4.97
2019-04-19T18:18:02.045Z,5.10
2019-04-19T18:23:48.144Z,5.40
2019-04-19T18:26:54.644Z,5.47
2019-04-19T18:30:05.005Z,6.17
2019-04-19T18:33:18.163Z,5.97
2019-04-19T18:36:09.579Z,5.37
2019-04-19T18:39:02.180Z,5.10
2019-04-19T18:42:01.805Z,4.60
2019-04-19T18:45:00.802Z,4.92
2019-04-19T18:48:01.041Z,4.83
2019-04-19T18:51:04.343Z,8.20
2019-04-19T18:54:13.397Z,5.37
2019-04-19T18:57:02.569Z,7.60
2019-04-19T18:59:45.355Z,5.83
2019-04-19T19:02:26.718Z,8.13
2019-04-19T19:05:09.764Z,5.93
2019-04-19T19:07:56.273Z,7.03
2019-04-19T19:10:39.587Z,7.20
2019-04-19T19:13:16.463Z,5.07
2019-04-19T19:15:58.226Z,6.73
2019-04-19T19:18:45.809Z,7.70
2019-04-19T19:21:28.796Z,9.30
2019-04-19T19:24:27.614Z,6.60
2019-04-19T19:27:00.958Z,8.00
2019-04-19T19:29:34.258Z,5.57
2019-04-19T19:32:17.512Z,11.47
2019-04-19T19:35:03.192Z,8.20
2019-04-19T19:37:43.088Z,7.03
2019-04-19T19:40:33.466Z,8.13
2019-04-19T19:43:15.539Z,7.27
2019-04-19T19:45:41.450Z,8.13
2019-04-19T19:48:13.273Z,7.63
2019-04-19T19:50:48.502Z,7.00
2019-04-19T19:53:17.008Z,7.70
2019-04-19T19:55:47.021Z,7.63
2019-04-19T19:58:08.146Z,7.90
2019-04-19T20:00:40.952Z,8.20
2019-04-19T20:03:10.756Z,7.03
2019-04-19T20:05:33.270Z,7.37
2019-04-19T20:07:59.586Z,7.03
2019-04-19T20:10:36.118Z,5.93
2019-04-19T20:13:01.757Z,7.70
2019-04-19T20:15:33.957Z,6.67
2019-04-19T20:18:01.953Z,7.67
2019-04-19T20:20:34.197Z,5.57
2019-04-19T20:23:02.403Z,8.47
2019-04-19T20:25:38.569Z,8.17
2019-04-19T20:28:03.018Z,8.83
2019-04-19T20:30:39.175Z,6.93
2019-04-19T20:33:03.718Z,8.70
2019-04-19T20:35:34.429Z,9.20
2019-04-19T20:38:07.485Z,6.87
2019-04-19T20:40:34.368Z,5.47
2019-04-19T20:43:27.952Z,6.53
2019-04-19T20:45:41.941Z,7.77
2019-04-19T20:48:15.598Z,8.53
2019-04-19T20:50:47.295Z,6.13
2019-04-19T20:53:16.195Z,10.77
2019-04-19T20:56:10.875Z,6.93
2019-04-19T20:58:22.281Z,7.30
2019-04-19T21:00:38.546Z,9.77
2019-04-19T21:03:07.978Z,7.83
2019-04-19T21:05:42.591Z,8.20
2019-04-19T21:08:11.002Z,10.90
2019-04-19T21:10:39.222Z,9.17
2019-04-19T21:13:12.174Z,9.13
2019-04-19T21:15:40.519Z,8.43
2019-04-19T21:18:16.021Z,7.83
2019-04-19T21:20:40.582Z,10.27
2019-04-19T21:23:16.687Z,7.20
2019-04-19T21:25:46.520Z,5.93
2019-04-19T21:28:10.618Z,5.83
2019-04-19T21:30:47.819Z,7.87
2019-04-19T21:33:13.440Z,5.17
2019-04-19T21:35:48.343Z,6.57
2019-04-19T21:38:17.249Z,8.03
2019-04-19T21:40:43.607Z,9.90
2019-04-19T21:43:12.914Z,7.73
2019-04-19T21:45:46.288Z,6.40
2019-04-19T21:48:12.924Z,7.90
2019-04-19T21:50:45.446Z,6.70
2019-04-19T21:53:12.865Z,6.97
2019-04-19T21:55:44.785Z,8.13
2019-04-19T21:58:17.734Z,7.40
2019-04-19T22:00:45.289Z,7.33
2019-04-19T22:03:18.551Z,7.17
2019-04-19T22:05:45.195Z,8.90
2019-04-19T22:08:20.976Z,5.87
2019-04-19T22:10:47.227Z,10.67
2019-04-19T22:13:15.167Z,5.93
2019-04-19T22:15:50.730Z,7.43
2019-04-19T22:18:15.249Z,6.03
2019-04-19T22:20:51.323Z,7.20
2019-04-19T22:23:16.104Z,6.97
2019-04-19T22:25:52.680Z,6.93
2019-04-19T22:28:15.498Z,6.90
2019-04-19T22:30:49.701Z,8.90
2019-04-19T22:33:14.682Z,7.03
2019-04-19T22:35:48.054Z,8.43
2019-04-19T22:38:17.983Z,6.20
2019-04-19T22:40:45.043Z,6.27
2019-04-19T22:43:15.069Z,7.00
2019-04-19T22:45:44.563Z,5.40
2019-04-19T22:48:16.797Z,9.03
2019-04-19T22:50:44.554Z,7.63
2019-04-19T22:53:17.275Z,6.83
2019-04-19T22:55:52.276Z,7.77
2019-04-19T22:58:20.934Z,7.40
2019-04-19T23:00:47.105Z,9.83
2019-04-19T23:03:23.988Z,8.90
2019-04-19T23:05:48.330Z,10.30
2019-04-19T23:08:24.470Z,9.37
2019-04-19T23:10:54.283Z,11.83
2019-04-19T23:13:17.662Z,12.80
2019-04-19T23:15:47.782Z,11.10
2019-04-19T23:18:21.458Z,13.93
2019-04-19T23:20:47.442Z,9.00
2019-04-19T23:23:21.815Z,9.30
2019-04-19T23:26:03.201Z,12.23
2019-04-19T23:28:25.349Z,13.00
2019-04-19T23:30:47.612Z,12.60
2019-04-19T23:33:21.045Z,16.27
2019-04-19T23:35:49.179Z,15.70
2019-04-19T23:38:22.554Z,12.27
2019-04-19T23:40:48.772Z,13.47
2019-04-19T23:43:24.236Z,15.67
2019-04-19T23:45:49.238Z,11.57
2019-04-19T23:48:24.227Z,12.23
2019-04-19T23:50:50.081Z,16.50
2019-04-19T23:53:22.523Z,12.20
2019-04-19T23:55:50.674Z,12.53
2019-04-19T23:58:28.185Z,10.37
